createdAt,value
2022-12-24T00:02:32.833Z,95.99
2022-12-24T00:06:35.493Z,96.08
2022-12-24T00:10:36.901Z,96.21
2022-12-24T00:14:38.233Z,96.76
2022-12-24T00:18:45.408Z,96.95
2022-12-24T00:22:47.774Z,96.83
2022-12-24T00:26:49.130Z,97.72
2022-12-24T00:30:50.538Z,97.39
2022-12-24T00:34:51.923Z,97.95
2022-12-24T00:38:53.263Z,98.63
2022-12-24T00:42:55.183Z,98.99
2022-12-24T00:46:56.481Z,99.86
2022-12-24T00:50:57.877Z,100.00
2022-12-24T00:54:59.229Z,100.00
2022-12-24T00:59:00.964Z,100.00
2022-12-24T01:03:02.475Z,100.00
2022-12-24T01:07:04.073Z,100.00
2022-12-24T01:11:07.334Z,100.00
2022-12-24T01:15:09.645Z,100.00
2022-12-24T01:19:11.213Z,100.00
2022-12-24T01:23:12.955Z,100.00
2022-12-24T01:27:14.351Z,100.00
2022-12-24T01:31:18.320Z,100.00
2022-12-24T01:35:19.718Z,100.00
2022-12-24T01:39:21.165Z,100.00
2022-12-24T01:43:24.045Z,100.00
2022-12-24T01:47:29.469Z,100.00
2022-12-24T01:51:37.199Z,100.00
2022-12-24T01:55:40.156Z,100.00
2022-12-24T01:59:46.443Z,100.00
2022-12-24T02:03:48.117Z,100.00
2022-12-24T02:07:49.908Z,100.00
2022-12-24T02:11:51.831Z,100.00
2022-12-24T02:16:08.901Z,100.00
2022-12-24T02:20:36.908Z,100.00
2022-12-24T02:25:10.639Z,100.00
2022-12-24T02:29:38.892Z,100.00
2022-12-24T02:33:58.917Z,100.00
2022-12-24T02:38:13.845Z,100.00
2022-12-24T02:42:20.785Z,100.00
2022-12-24T02:46:26.102Z,100.00
2022-12-24T02:50:28.041Z,100.00
2022-12-24T02:54:30.732Z,100.00
2022-12-24T02:59:00.422Z,100.00
2022-12-24T03:03:29.112Z,100.00
2022-12-24T03:08:12.510Z,100.00
2022-12-24T03:12:23.270Z,100.00
2022-12-24T03:16:26.943Z,100.00
2022-12-24T03:20:36.956Z,100.00
2022-12-24T03:24:38.429Z,100.00
2022-12-24T03:28:41.967Z,100.00
2022-12-24T03:32:43.280Z,100.00
2022-12-24T03:36:45.310Z,100.00
2022-12-24T03:40:46.877Z,100.00
2022-12-24T03:44:48.278Z,100.00
2022-12-24T03:48:49.709Z,100.00
2022-12-24T03:52:51.047Z,100.00
2022-12-24T03:56:52.399Z,100.00
2022-12-24T04:00:54.103Z,100.00
2022-12-24T04:04:55.473Z,100.00
2022-12-24T04:08:56.851Z,100.00
2022-12-24T04:12:58.219Z,100.00
2022-12-24T04:17:00.324Z,100.00
2022-12-24T04:21:01.864Z,100.00
2022-12-24T04:25:03.401Z,100.00
2022-12-24T04:29:04.816Z,100.00
2022-12-24T04:33:06.350Z,100.00
2022-12-24T04:37:07.679Z,100.00
2022-12-24T04:41:22.729Z,100.00
2022-12-24T04:45:25.332Z,100.00
2022-12-24T04:49:26.788Z,100.00
2022-12-24T04:53:28.102Z,100.00
2022-12-24T04:57:32.527Z,100.00
2022-12-24T05:01:34.041Z,100.00
2022-12-24T05:05:36.070Z,100.00
2022-12-24T05:09:37.384Z,100.00
2022-12-24T05:13:46.186Z,100.00
2022-12-24T05:17:48.720Z,100.00
2022-12-24T05:22:10.137Z,100.00
2022-12-24T05:26:23.579Z,100.00
2022-12-24T05:30:24.938Z,100.00
2022-12-24T05:34:26.268Z,100.00
2022-12-24T05:38:27.625Z,100.00
2022-12-24T05:42:28.940Z,100.00
2022-12-24T05:46:30.350Z,100.00
2022-12-24T05:50:31.776Z,100.00
2022-12-24T05:54:33.114Z,100.00
2022-12-24T05:58:35.075Z,100.00
2022-12-24T06:02:36.840Z,100.00
2022-12-24T06:06:38.240Z,100.00
2022-12-24T06:10:39.674Z,100.00
2022-12-24T06:14:40.997Z,100.00
2022-12-24T06:18:43.050Z,100.00
2022-12-24T06:22:44.356Z,100.00
2022-12-24T06:26:45.924Z,100.00
2022-12-24T06:30:49.917Z,100.00
2022-12-24T06:34:51.411Z,100.00
2022-12-24T06:38:54.868Z,100.00
2022-12-24T06:42:56.216Z,100.00
2022-12-24T06:46:57.730Z,100.00
2022-12-24T06:51:02.444Z,100.00
2022-12-24T06:55:04.758Z,100.00
2022-12-24T06:59:06.107Z,100.00
2022-12-24T07:03:07.401Z,99.98
2022-12-24T07:07:08.797Z,100.00
2022-12-24T07:11:10.112Z,100.00
2022-12-24T07:15:13.120Z,100.00
2022-12-24T07:19:15.177Z,100.00
2022-12-24T07:23:16.621Z,100.00
2022-12-24T07:27:18.043Z,100.00
2022-12-24T07:31:20.073Z,100.00
2022-12-24T07:35:21.419Z,100.00
2022-12-24T07:39:22.996Z,100.00
2022-12-24T07:43:25.479Z,100.00
2022-12-24T07:47:26.805Z,100.00
2022-12-24T07:51:28.117Z,100.00
2022-12-24T07:55:29.485Z,100.00
2022-12-24T07:59:30.794Z,100.00
2022-12-24T08:03:32.398Z,100.00
2022-12-24T08:07:33.904Z,100.00
2022-12-24T08:11:35.453Z,100.00
2022-12-24T08:15:36.812Z,100.00
2022-12-24T08:19:38.845Z,100.00
2022-12-24T08:23:40.239Z,100.00
2022-12-24T08:27:41.632Z,100.00
2022-12-24T08:31:43.019Z,100.00
2022-12-24T08:35:52.624Z,100.00
2022-12-24T08:39:53.947Z,100.00
2022-12-24T08:43:55.309Z,100.00
2022-12-24T08:47:59.441Z,100.00
2022-12-24T08:52:00.861Z,100.00
2022-12-24T08:56:04.168Z,100.00
2022-12-24T09:00:07.228Z,98.00
2022-12-24T09:04:09.541Z,96.86
2022-12-24T09:08:10.927Z,96.06
2022-12-24T09:12:12.274Z,94.91
2022-12-24T09:16:13.878Z,93.26
2022-12-24T09:20:15.414Z,92.05
2022-12-24T09:24:17.102Z,92.19
2022-12-24T09:28:18.427Z,93.11
2022-12-24T09:32:20.265Z,93.39
2022-12-24T09:36:21.682Z,94.18
2022-12-24T09:40:29.073Z,94.52
2022-12-24T09:44:36.632Z,94.52
2022-12-24T09:48:44.183Z,94.65
2022-12-24T09:52:47.448Z,94.23
2022-12-24T09:56:49.656Z,95.04
2022-12-24T10:00:52.405Z,94.23
2022-12-24T10:04:54.795Z,94.92
2022-12-24T10:09:02.139Z,94.56
2022-12-24T10:13:21.481Z,94.93
2022-12-24T10:17:53.543Z,94.67
2022-12-24T10:22:20.515Z,94.44
2022-12-24T10:26:34.174Z,94.79
2022-12-24T10:30:35.920Z,95.10
2022-12-24T10:34:45.803Z,96.12
2022-12-24T10:38:47.169Z,97.94
2022-12-24T10:42:51.600Z,98.80
2022-12-24T10:46:53.752Z,99.68
2022-12-24T10:51:06.177Z,100.00
2022-12-24T10:55:19.647Z,100.00
2022-12-24T10:59:28.867Z,100.00
2022-12-24T11:03:33.947Z,100.00
2022-12-24T11:07:35.399Z,100.00
2022-12-24T11:11:36.912Z,100.00
2022-12-24T11:15:38.378Z,100.00
2022-12-24T11:19:40.265Z,100.00
2022-12-24T11:23:49.907Z,100.00
2022-12-24T11:27:52.422Z,100.00
2022-12-24T11:32:10.967Z,100.00
2022-12-24T11:36:13.633Z,100.00
2022-12-24T11:40:24.123Z,100.00
2022-12-24T11:44:27.426Z,100.00
2022-12-24T11:48:31.677Z,100.00
2022-12-24T11:52:33.270Z,100.00
2022-12-24T11:56:44.704Z,100.00
2022-12-24T12:00:47.854Z,100.00
2022-12-24T12:04:57.863Z,100.00
2022-12-24T12:09:06.807Z,100.00
2022-12-24T12:13:19.303Z,100.00
2022-12-24T12:17:32.742Z,100.00
2022-12-24T12:21:43.803Z,100.00
2022-12-24T12:26:25.735Z,100.00
2022-12-24T12:30:28.965Z,100.00
2022-12-24T12:34:47.838Z,100.00
2022-12-24T12:38:50.247Z,98.86
2022-12-24T12:43:14.615Z,99.24
2022-12-24T12:47:21.845Z,98.35
2022-12-24T12:51:45.345Z,98.22
2022-12-24T12:56:10.428Z,98.35
2022-12-24T13:00:16.356Z,96.79
2022-12-24T13:04:42.505Z,96.20
2022-12-24T13:08:58.975Z,94.70
2022-12-24T13:13:22.534Z,95.15
2022-12-24T13:17:54.359Z,94.76
2022-12-24T13:21:56.469Z,95.20
2022-12-24T13:25:59.142Z,94.34
2022-12-24T13:30:32.469Z,94.59
2022-12-24T13:34:36.816Z,95.12
2022-12-24T13:38:47.072Z,93.60
2022-12-24T13:43:07.255Z,93.74
2022-12-24T13:47:14.424Z,94.40
2022-12-24T13:51:25.637Z,94.77
2022-12-24T13:55:27.966Z,94.98
2022-12-24T13:59:34.576Z,94.73
2022-12-24T14:03:53.763Z,94.44
2022-12-24T14:07:56.425Z,94.00
2022-12-24T14:12:03.715Z,94.90
2022-12-24T14:16:17.254Z,94.61
2022-12-24T14:20:19.068Z,94.46
2022-12-24T14:24:25.273Z,95.08
2022-12-24T14:28:35.300Z,94.82
2022-12-24T14:32:38.694Z,93.61
2022-12-24T14:36:44.027Z,93.44
2022-12-24T14:41:39.397Z,93.88
2022-12-24T14:45:54.253Z,93.85
2022-12-24T14:50:19.207Z,94.22
2022-12-24T14:54:26.612Z,94.53
2022-12-24T14:58:30.840Z,95.25
2022-12-24T15:02:51.135Z,95.17
2022-12-24T15:06:56.674Z,95.65
2022-12-24T15:11:02.304Z,95.65
2022-12-24T15:15:05.433Z,95.71
2022-12-24T15:19:20.038Z,96.79
2022-12-24T15:23:33.502Z,96.65
2022-12-24T15:27:39.602Z,96.92
2022-12-24T15:31:40.987Z,96.82
2022-12-24T15:35:42.368Z,97.00
2022-12-24T15:39:45.163Z,96.84
2022-12-24T15:43:48.509Z,97.39
2022-12-24T15:47:53.431Z,97.73
2022-12-24T15:52:03.675Z,98.26
2022-12-24T15:56:13.624Z,99.98
2022-12-24T16:00:32.112Z,100.00
2022-12-24T16:04:33.825Z,100.00
2022-12-24T16:08:38.890Z,100.00
2022-12-24T16:12:40.776Z,100.00
2022-12-24T16:16:46.193Z,100.00
2022-12-24T16:20:49.673Z,100.00
2022-12-24T16:24:55.614Z,100.00
2022-12-24T16:28:57.183Z,100.00
2022-12-24T16:32:58.583Z,100.00
2022-12-24T16:37:01.423Z,100.00
2022-12-24T16:41:02.724Z,100.00
2022-12-24T16:45:05.034Z,100.00
2022-12-24T16:49:06.377Z,100.00
2022-12-24T16:53:17.520Z,100.00
2022-12-24T16:57:19.467Z,100.00
2022-12-24T17:01:20.921Z,100.00
2022-12-24T17:05:23.791Z,100.00
2022-12-24T17:09:25.978Z,100.00
2022-12-24T17:13:27.315Z,100.00
2022-12-24T17:17:30.164Z,100.00
2022-12-24T17:21:31.763Z,100.00
2022-12-24T17:25:35.849Z,100.00
2022-12-24T17:29:37.483Z,100.00
2022-12-24T17:33:39.153Z,100.00
2022-12-24T17:37:40.499Z,100.00
2022-12-24T17:41:41.839Z,100.00
2022-12-24T17:45:43.489Z,100.00
2022-12-24T17:49:46.415Z,100.00
2022-12-24T17:53:48.919Z,100.00
2022-12-24T17:57:50.323Z,100.00
2022-12-24T18:01:51.709Z,100.00
2022-12-24T18:05:53.190Z,100.00
2022-12-24T18:09:54.520Z,100.00
2022-12-24T18:13:57.145Z,100.00
2022-12-24T18:17:59.226Z,100.00
2022-12-24T18:22:01.177Z,100.00
2022-12-24T18:26:05.336Z,100.00
2022-12-24T18:30:08.201Z,100.00
2022-12-24T18:34:12.990Z,100.00
2022-12-24T18:38:14.452Z,100.00
2022-12-24T18:42:15.776Z,100.00
2022-12-24T18:46:20.519Z,100.00
2022-12-24T18:50:21.910Z,100.00
2022-12-24T18:54:23.491Z,100.00
2022-12-24T18:58:24.828Z,100.00
2022-12-24T19:02:27.035Z,100.00
2022-12-24T19:06:28.671Z,100.00
2022-12-24T19:10:30.028Z,100.00
2022-12-24T19:14:31.457Z,100.00
2022-12-24T19:18:33.712Z,100.00
2022-12-24T19:22:35.247Z,100.00
2022-12-24T19:26:37.642Z,100.00
2022-12-24T19:30:42.271Z,100.00
2022-12-24T19:34:43.725Z,100.00
2022-12-24T19:38:45.719Z,100.00
2022-12-24T19:42:48.183Z,100.00
2022-12-24T19:46:49.492Z,100.00
2022-12-24T19:50:50.855Z,100.00
2022-12-24T19:54:52.219Z,100.00
2022-12-24T19:58:55.704Z,100.00
2022-12-24T20:02:57.200Z,100.00
2022-12-24T20:07:00.779Z,100.00
2022-12-24T20:11:06.869Z,100.00
2022-12-24T20:15:09.081Z,100.00
2022-12-24T20:19:14.712Z,100.00
2022-12-24T20:23:16.776Z,100.00
2022-12-24T20:27:18.095Z,100.00
2022-12-24T20:31:22.470Z,100.00
2022-12-24T20:35:24.777Z,100.00
2022-12-24T20:39:26.165Z,100.00
2022-12-24T20:43:34.076Z,100.00
2022-12-24T20:47:36.859Z,100.00
2022-12-24T20:51:38.234Z,100.00
2022-12-24T20:55:39.986Z,100.00
2022-12-24T20:59:41.396Z,100.00
2022-12-24T21:03:42.825Z,100.00
2022-12-24T21:07:44.377Z,100.00
2022-12-24T21:11:52.256Z,100.00
2022-12-24T21:15:53.557Z,100.00
2022-12-24T21:19:55.628Z,100.00
2022-12-24T21:23:57.249Z,100.00
2022-12-24T21:27:58.673Z,100.00
2022-12-24T21:32:00.057Z,100.00
2022-12-24T21:36:03.377Z,100.00
2022-12-24T21:40:05.929Z,100.00
2022-12-24T21:44:07.355Z,100.00
2022-12-24T21:48:28.652Z,100.00
2022-12-24T21:52:30.024Z,100.00
2022-12-24T21:56:31.372Z,100.00
2022-12-24T22:00:32.763Z,100.00
2022-12-24T22:04:34.303Z,100.00
2022-12-24T22:08:54.300Z,100.00
2022-12-24T22:12:56.092Z,100.00
2022-12-24T22:16:57.640Z,100.00
2022-12-24T22:21:02.471Z,100.00
2022-12-24T22:25:04.249Z,100.00
2022-12-24T22:29:06.016Z,100.00
2022-12-24T22:33:09.487Z,100.00
2022-12-24T22:37:10.875Z,100.00
2022-12-24T22:41:14.039Z,100.00
2022-12-24T22:45:21.820Z,100.00
2022-12-24T22:49:23.708Z,100.00
2022-12-24T22:53:25.573Z,100.00
2022-12-24T22:57:27.327Z,100.00
2022-12-24T23:01:37.500Z,100.00
2022-12-24T23:05:40.164Z,100.00
2022-12-24T23:09:41.681Z,100.00
2022-12-24T23:14:03.415Z,100.00
2022-12-24T23:18:06.510Z,100.00
2022-12-24T23:22:08.487Z,100.00
2022-12-24T23:26:13.020Z,100.00
2022-12-24T23:30:14.894Z,100.00
2022-12-24T23:34:16.255Z,100.00
2022-12-24T23:38:17.898Z,100.00
2022-12-24T23:42:19.248Z,100.00
2022-12-24T23:46:21.455Z,100.00
2022-12-24T23:50:22.990Z,100.00
2022-12-24T23:54:24.392Z,100.00
2022-12-24T23:58:26.186Z,100.00
